createdAt,value
2019-04-07T03:42:01.108Z,0.1
2019-04-07T03:44:01.262Z,0.2
2019-04-07T03:45:01.111Z,0.3
2019-04-07T03:47:01.436Z,0.4
2019-04-07T03:48:02.039Z,0.5
2019-04-07T03:49:01.899Z,0.6
2019-04-07T03:50:01.480Z,0.7
2019-04-07T03:51:01.490Z,0.9
2019-04-07T03:52:01.858Z,1.0
2019-04-07T03:53:01.459Z,1.2
2019-04-07T03:54:02.887Z,1.4
2019-04-07T03:55:01.312Z,1.7
2019-04-07T03:56:01.782Z,2.0
2019-04-07T03:57:00.916Z,2.3
2019-04-07T03:58:01.600Z,2.6
2019-04-07T03:59:00.773Z,3.1
2019-04-07T04:00:02.054Z,3.6
2019-04-07T04:01:00.838Z,4.3
2019-04-07T04:02:00.920Z,5.1
2019-04-07T04:03:00.774Z,6.0
2019-04-07T04:04:02.003Z,7.1
2019-04-07T04:05:00.943Z,8.3
2019-04-07T04:06:00.806Z,9.9
2019-04-07T04:07:16.139Z,11.7
2019-04-07T04:08:00.913Z,13.7
2019-04-07T04:09:01.805Z,16.2
2019-04-07T04:10:01.051Z,19.1
2019-04-07T04:11:00.809Z,22.4
2019-04-07T04:12:01.272Z,26.4
2019-04-07T04:13:00.974Z,31.1
2019-04-07T04:14:01.501Z,36.5
2019-04-07T04:15:01.708Z,42.9
2019-04-07T04:16:00.999Z,50.3
2019-04-07T04:17:01.953Z,59.1
2019-04-07T04:18:01.160Z,69.3
2019-04-07T04:19:00.827Z,81.2
2019-04-07T04:20:00.804Z,95.1
2019-04-07T04:21:01.466Z,111.3
2019-04-07T04:22:01.915Z,130.3
2019-04-07T04:23:00.816Z,152.2
2019-04-07T04:24:00.780Z,177.5
2019-04-07T04:25:01.050Z,206.7
2019-04-07T04:26:00.960Z,240.1
2019-04-07T04:27:01.071Z,278.1
2019-04-07T04:28:01.211Z,320.9
2019-04-07T04:29:02.439Z,369.1
2019-04-07T04:30:00.962Z,422.9
2019-04-07T04:31:00.859Z,482.4
2019-04-07T04:32:01.794Z,548.0
2019-04-07T04:33:01.894Z,619.9
2019-04-07T04:34:01.538Z,698.1
2019-04-07T04:35:01.052Z,783.1
2019-04-07T04:36:00.841Z,874.9
2019-04-07T04:37:01.765Z,973.7
2019-04-07T04:38:01.665Z,1080.0
2019-04-07T04:39:00.776Z,1193.9
2019-04-07T04:40:01.530Z,1315.5
2019-04-07T04:41:01.317Z,1445.3
2019-04-07T04:42:01.055Z,1583.1
2019-04-07T04:43:01.463Z,1729.1
2019-04-07T04:44:00.824Z,1883.5
2019-04-07T04:45:02.207Z,2046.5
2019-04-07T04:46:01.295Z,2218.5
2019-04-07T04:47:02.734Z,2400.3
2019-04-07T04:48:00.840Z,2592.2
2019-04-07T04:49:00.816Z,2795.1
2019-04-07T04:50:01.708Z,3009.6
2019-04-07T04:51:00.816Z,3235.8
2019-04-07T04:52:01.133Z,3473.7
2019-04-07T04:53:00.814Z,3723.7
2019-04-07T04:54:00.859Z,3986.9
2019-04-07T04:55:01.894Z,4264.1
2019-04-07T04:56:01.007Z,4555.5
2019-04-07T04:57:04.053Z,4861.9
2019-04-07T04:58:00.850Z,5183.1
2019-04-07T04:59:00.990Z,5518.9
2019-04-07T05:00:01.732Z,5868.7
2019-04-07T05:01:00.904Z,6232.5
2019-04-07T05:02:01.311Z,6610.0
2019-04-07T05:03:01.034Z,7001.1
2019-04-07T05:04:00.784Z,7404.7
2019-04-07T05:05:02.393Z,7819.9
2019-04-07T05:06:01.391Z,8245.6
2019-04-07T05:07:01.420Z,8680.2
2019-04-07T05:08:03.910Z,9120.9
2019-04-07T05:09:01.120Z,9565.3
2019-04-07T05:10:01.164Z,10011.1
2019-04-07T05:11:00.869Z,10460.5
2019-04-07T05:12:01.029Z,10914.7
2019-04-07T05:13:01.856Z,11374.9
2019-04-07T05:14:00.876Z,11841.9
2019-04-07T05:15:01.595Z,12315.5
2019-04-07T05:16:00.819Z,12807.8
2019-04-07T05:17:00.980Z,13332.3
2019-04-07T05:18:01.639Z,13861.8
2019-04-07T05:19:00.851Z,14397.6
2019-04-07T05:20:01.161Z,14942.3
2019-04-07T05:21:00.799Z,15483.2
2019-04-07T05:22:01.346Z,16017.6
2019-04-07T05:23:01.046Z,16576.3
2019-04-07T05:24:01.419Z,17147.1
2019-04-07T05:25:00.949Z,17724.9
2019-04-07T05:26:00.796Z,18300.2
2019-04-07T05:27:01.046Z,18886.5
2019-04-07T05:28:01.200Z,19511.1
2019-04-07T05:29:02.628Z,20154.6
2019-04-07T05:30:01.187Z,20768.9
2019-04-07T05:31:00.797Z,21334.7
2019-04-07T05:32:01.483Z,21864.2
2019-04-07T05:33:00.948Z,22423.5
2019-04-07T05:34:00.825Z,23030.7
2019-04-07T05:35:01.039Z,23688.1
2019-04-07T05:36:00.922Z,24386.2
2019-04-07T05:37:01.241Z,25072.3
2019-04-07T05:38:03.865Z,25697.0
2019-04-07T05:39:00.908Z,26305.8
2019-04-07T05:40:02.875Z,26897.3
2019-04-07T05:41:00.821Z,27519.7
2019-04-07T05:42:01.296Z,28165.7
2019-04-07T05:43:00.805Z,28758.8
2019-04-07T05:44:01.328Z,29297.4
2019-04-07T05:45:00.862Z,29875.3
2019-04-07T05:46:00.861Z,30550.4
2019-04-07T05:47:01.583Z,31264.6
2019-04-07T05:48:00.824Z,31952.4
2019-04-07T05:49:00.834Z,32605.0
2019-04-07T05:50:03.184Z,33223.8
2019-04-07T05:51:01.197Z,33769.6
2019-04-07T05:52:05.206Z,34314.9
2019-04-07T05:53:00.828Z,34857.9
2019-04-07T05:54:01.343Z,35379.7
2019-04-07T05:55:01.311Z,35935.1
2019-04-07T05:56:01.068Z,36525.0
2019-04-07T05:57:01.563Z,37162.4
2019-04-07T05:58:03.344Z,37833.3
2019-04-07T05:59:00.807Z,38508.6
2019-04-07T06:00:01.352Z,39226.9
2019-04-07T06:01:01.801Z,39917.7
2019-04-07T06:02:02.547Z,40565.4
2019-04-07T06:03:03.656Z,41166.3
2019-04-07T06:04:02.323Z,41760.5
2019-04-07T06:05:01.229Z,42381.1
2019-04-07T06:06:00.803Z,43059.7
2019-04-07T06:07:01.011Z,43772.3
2019-04-07T06:08:12.161Z,44558.1
2019-04-07T06:09:00.798Z,45344.8
2019-04-07T06:10:01.006Z,46086.3
2019-04-07T06:11:02.283Z,46753.5
2019-04-07T06:12:01.430Z,47322.8
2019-04-07T06:13:00.806Z,47926.9
2019-04-07T06:14:00.918Z,48626.9
2019-04-07T06:15:00.834Z,49298.0
2019-04-07T06:16:00.834Z,49918.8
2019-04-07T06:17:01.010Z,50501.5
2019-04-07T06:18:01.418Z,51164.5
2019-04-07T06:19:01.097Z,51876.9
2019-04-07T06:20:01.455Z,52574.2
2019-04-07T06:21:00.839Z,53349.9
2019-04-07T06:22:01.348Z,54157.5
2019-04-07T06:23:00.835Z,54946.9
2019-04-07T06:24:00.836Z,55770.3
2019-04-07T06:25:02.678Z,56637.8
2019-04-07T06:26:00.809Z,57540.7
2019-04-07T06:27:01.047Z,58481.2
2019-04-07T06:28:00.837Z,59382.0
2019-04-07T06:29:01.488Z,60182.4
2019-04-07T06:30:00.964Z,60922.8
2019-04-07T06:31:01.875Z,61643.3
2019-04-07T06:32:09.080Z,62379.3
2019-04-07T06:33:05.463Z,63041.7
2019-04-07T06:34:00.846Z,63610.5
2019-04-07T06:35:01.728Z,64110.8
2019-04-07T06:36:00.816Z,64479.1
2019-04-07T06:37:01.019Z,64769.9
2019-04-07T06:38:04.983Z,65016.2
2019-04-07T06:39:01.401Z,65224.1
2019-04-07T06:40:01.060Z,65382.6
2019-04-07T06:41:02.093Z,65486.3
2019-04-07T06:42:02.163Z,65535.0
2019-04-07T06:45:01.595Z,65535.0
2019-04-07T07:00:01.115Z,65535.0
2019-04-07T07:15:03.107Z,65535.0
2019-04-07T07:30:01.185Z,65535.0
2019-04-07T07:45:01.582Z,65535.0
2019-04-07T08:00:04.497Z,65535.0
2019-04-07T08:15:01.724Z,65535.0
2019-04-07T08:30:01.617Z,65535.0
2019-04-07T08:45:01.529Z,65535.0
2019-04-07T09:00:01.191Z,65535.0
2019-04-07T09:15:09.374Z,65535.0
2019-04-07T09:30:01.169Z,65535.0
2019-04-07T09:45:02.026Z,65535.0
2019-04-07T10:00:01.863Z,65535.0
2019-04-07T10:15:01.985Z,65535.0
2019-04-07T10:30:01.036Z,65535.0
2019-04-07T10:45:01.135Z,65535.0
2019-04-07T11:00:01.369Z,65535.0
2019-04-07T11:15:01.211Z,65535.0
2019-04-07T11:30:06.880Z,65535.0
2019-04-07T11:45:01.113Z,65535.0
2019-04-07T12:00:01.272Z,65535.0
2019-04-07T12:15:02.146Z,65535.0
2019-04-07T12:30:01.234Z,65535.0
2019-04-07T12:45:01.749Z,65535.0
2019-04-07T13:00:01.549Z,65535.0
2019-04-07T13:15:01.225Z,65535.0
2019-04-07T13:30:01.206Z,65535.0
2019-04-07T13:45:02.751Z,65535.0
2019-04-07T14:00:01.646Z,65535.0
2019-04-07T14:15:01.128Z,65535.0
2019-04-07T14:30:01.453Z,65535.0
2019-04-07T14:45:01.315Z,65535.0
2019-04-07T15:00:02.105Z,65535.0
2019-04-07T15:15:04.613Z,65535.0
2019-04-07T15:30:02.402Z,65535.0
2019-04-07T15:45:02.325Z,65535.0
2019-04-07T15:46:01.268Z,65531.9
2019-04-07T15:47:01.765Z,65486.0
2019-04-07T15:48:01.041Z,65405.5
2019-04-07T15:49:01.010Z,65289.3
2019-04-07T15:50:01.200Z,65134.7
2019-04-07T15:51:03.968Z,64944.3
2019-04-07T15:52:02.871Z,64716.3
2019-04-07T15:53:01.578Z,64449.7
2019-04-07T15:54:01.055Z,64142.9
2019-04-07T15:55:01.986Z,63801.4
2019-04-07T15:56:05.816Z,63418.1
2019-04-07T15:57:01.088Z,63006.1
2019-04-07T15:58:01.773Z,62559.3
2019-04-07T15:59:02.236Z,62075.9
2019-04-07T16:00:02.967Z,61555.1
2019-04-07T16:01:02.732Z,60996.0
2019-04-07T16:02:01.252Z,60447.7
2019-04-07T16:03:01.047Z,59898.9
2019-04-07T16:04:01.267Z,59355.9
2019-04-07T16:05:02.567Z,58819.8
2019-04-07T16:06:01.046Z,58289.5
2019-04-07T16:07:01.039Z,57764.3
2019-04-07T16:08:01.150Z,57246.9
2019-04-07T16:09:01.403Z,56744.5
2019-04-07T16:10:01.905Z,56251.6
2019-04-07T16:11:01.833Z,55779.8
2019-04-07T16:12:01.721Z,55314.3
2019-04-07T16:13:01.418Z,54861.1
2019-04-07T16:14:01.603Z,54421.9
2019-04-07T16:15:02.079Z,53995.1
2019-04-07T16:16:01.573Z,53585.2
2019-04-07T16:17:03.951Z,53185.9
2019-04-07T16:18:03.299Z,52801.1
2019-04-07T16:19:01.405Z,52423.0
2019-04-07T16:20:02.553Z,52054.3
2019-04-07T16:21:03.511Z,51691.3
2019-04-07T16:22:06.174Z,51338.9
2019-04-07T16:23:01.056Z,50991.5
2019-04-07T16:24:01.022Z,50644.3
2019-04-07T16:25:01.775Z,50297.7
2019-04-07T16:26:02.025Z,49948.8
2019-04-07T16:27:03.256Z,49600.6
2019-04-07T16:28:01.056Z,49252.5
2019-04-07T16:29:01.235Z,48902.9
2019-04-07T16:30:01.290Z,48552.4
2019-04-07T16:31:01.554Z,48199.6
2019-04-07T16:32:01.911Z,47838.6
2019-04-07T16:33:03.974Z,47467.9
2019-04-07T16:34:02.039Z,47091.5
2019-04-07T16:35:01.711Z,46709.4
2019-04-07T16:36:01.087Z,46324.9
2019-04-07T16:37:01.850Z,45937.1
2019-04-07T16:38:01.734Z,45550.1
2019-04-07T16:39:02.258Z,45164.7
2019-04-07T16:40:06.179Z,44779.9
2019-04-07T16:41:01.599Z,44393.5
2019-04-07T16:42:01.027Z,44004.3
2019-04-07T16:43:09.753Z,43611.7
2019-04-07T16:44:03.450Z,43214.9
2019-04-07T16:45:01.724Z,42816.4
2019-04-07T16:46:01.748Z,42418.3
2019-04-07T16:47:03.937Z,42022.0
2019-04-07T16:48:04.482Z,41628.9
2019-04-07T16:49:01.782Z,41238.9
2019-04-07T16:50:01.206Z,40848.6
2019-04-07T16:51:03.097Z,40455.3
2019-04-07T16:52:02.490Z,40058.9
2019-04-07T16:53:03.502Z,39659.3
2019-04-07T16:54:01.482Z,39254.2
2019-04-07T16:55:02.227Z,38841.9
2019-04-07T16:56:01.979Z,38420.0
2019-04-07T16:57:01.945Z,37989.3
2019-04-07T16:58:02.269Z,37551.9
2019-04-07T16:59:01.584Z,37110.9
2019-04-07T17:00:01.548Z,36666.5
2019-04-07T17:01:01.279Z,36218.3
2019-04-07T17:02:01.084Z,35766.1
2019-04-07T17:03:01.291Z,35309.3
2019-04-07T17:04:01.027Z,34846.6
2019-04-07T17:05:01.589Z,34378.4
2019-04-07T17:06:01.898Z,33906.0
2019-04-07T17:07:04.319Z,33431.1
2019-04-07T17:08:01.712Z,32951.4
2019-04-07T17:09:01.059Z,32466.3
2019-04-07T17:10:02.596Z,31976.9
2019-04-07T17:11:04.342Z,31484.1
2019-04-07T17:12:01.057Z,30988.2
2019-04-07T17:13:05.368Z,30485.6
2019-04-07T17:14:02.577Z,29976.9
2019-04-07T17:15:04.496Z,29462.8
2019-04-07T17:16:01.058Z,28942.8
2019-04-07T17:17:01.061Z,28411.9
2019-04-07T17:18:01.091Z,27866.5
2019-04-07T17:19:02.009Z,27311.5
2019-04-07T17:20:02.132Z,26748.3
2019-04-07T17:21:01.032Z,26176.7
2019-04-07T17:22:01.767Z,25592.7
2019-04-07T17:23:01.199Z,24998.4
2019-04-07T17:24:01.307Z,24396.9
2019-04-07T17:25:06.230Z,23791.4
2019-04-07T17:26:03.170Z,23184.2
2019-04-07T17:27:02.994Z,22578.8
2019-04-07T17:28:03.670Z,21980.7
2019-04-07T17:29:01.250Z,21390.1
2019-04-07T17:30:01.656Z,20803.9
2019-04-07T17:31:01.369Z,20222.9
2019-04-07T17:32:02.282Z,19655.2
2019-04-07T17:33:03.174Z,19105.9
2019-04-07T17:34:03.768Z,18572.0
2019-04-07T17:35:02.153Z,18055.9
2019-04-07T17:36:01.030Z,17557.9
2019-04-07T17:37:01.043Z,17078.3
2019-04-07T17:38:04.002Z,16614.9
2019-04-07T17:39:03.291Z,16165.3
2019-04-07T17:40:01.433Z,15727.5
2019-04-07T17:41:01.085Z,15299.7
2019-04-07T17:42:01.480Z,14877.3
2019-04-07T17:43:01.856Z,14457.0
2019-04-07T17:44:01.061Z,14037.5
2019-04-07T17:45:01.468Z,13620.3
2019-04-07T17:46:02.193Z,13205.2
2019-04-07T17:47:02.191Z,12790.9
2019-04-07T17:48:04.862Z,12375.7
2019-04-07T17:49:01.250Z,11958.5
2019-04-07T17:50:02.266Z,11537.8
2019-04-07T17:51:04.071Z,11114.3
2019-04-07T17:52:01.089Z,10689.4
2019-04-07T17:53:01.090Z,10265.6
2019-04-07T17:54:01.037Z,9844.1
2019-04-07T17:55:02.819Z,9426.0
2019-04-07T17:56:01.302Z,9012.7
2019-04-07T17:57:03.048Z,8605.3
2019-04-07T17:58:01.618Z,8204.5
2019-04-07T17:59:01.806Z,7810.1
2019-04-07T18:00:01.458Z,7423.0
2019-04-07T18:01:01.715Z,7043.2
2019-04-07T18:02:01.060Z,6671.1
2019-04-07T18:03:05.132Z,6306.7
2019-04-07T18:04:01.072Z,5950.4
2019-04-07T18:05:01.314Z,5602.7
2019-04-07T18:06:01.731Z,5264.3
2019-04-07T18:07:03.430Z,4936.5
2019-04-07T18:08:02.935Z,4619.3
2019-04-07T18:09:07.398Z,4313.5
2019-04-07T18:10:01.186Z,4018.9
2019-04-07T18:11:01.089Z,3736.1
2019-04-07T18:12:04.355Z,3465.0
2019-04-07T18:13:01.170Z,3206.3
2019-04-07T18:14:02.022Z,2960.7
2019-04-07T18:15:05.672Z,2727.7
2019-04-07T18:16:01.061Z,2507.7
2019-04-07T18:17:01.060Z,2300.4
2019-04-07T18:18:01.666Z,2106.1
2019-04-07T18:19:01.572Z,1924.5
2019-04-07T18:20:04.324Z,1755.2
2019-04-07T18:21:01.821Z,1597.5
2019-04-07T18:22:01.212Z,1450.3
2019-04-07T18:23:01.273Z,1313.2
2019-04-07T18:24:01.292Z,1185.7
2019-04-07T18:25:03.413Z,1067.5
2019-04-07T18:26:04.066Z,958.1
2019-04-07T18:27:01.611Z,857.4
2019-04-07T18:28:02.959Z,764.9
2019-04-07T18:29:01.822Z,680.1
2019-04-07T18:30:02.040Z,602.7
2019-04-07T18:31:04.265Z,532.2
2019-04-07T18:32:01.949Z,468.5
2019-04-07T18:33:01.088Z,411.1
2019-04-07T18:34:02.979Z,359.5
2019-04-07T18:35:01.270Z,313.6
2019-04-07T18:36:04.169Z,272.8
2019-04-07T18:37:01.973Z,236.7
2019-04-07T18:38:01.090Z,204.8
2019-04-07T18:39:01.092Z,176.8
2019-04-07T18:40:02.394Z,152.3
2019-04-07T18:41:02.579Z,131.0
2019-04-07T18:42:03.356Z,112.5
2019-04-07T18:43:01.117Z,96.3
2019-04-07T18:44:05.527Z,82.4
2019-04-07T18:45:01.672Z,70.3
2019-04-07T18:46:01.178Z,59.9
2019-04-07T18:47:01.445Z,50.9
2019-04-07T18:48:01.093Z,43.3
2019-04-07T18:49:03.482Z,36.7
2019-04-07T18:50:06.258Z,31.2
2019-04-07T18:51:01.093Z,26.5
2019-04-07T18:52:01.619Z,22.5
2019-04-07T18:53:01.632Z,19.1
2019-04-07T18:54:02.962Z,16.2
2019-04-07T18:55:04.078Z,13.7
2019-04-07T18:56:01.443Z,11.7
2019-04-07T18:57:01.311Z,9.9
2019-04-07T18:58:01.880Z,8.4
2019-04-07T18:59:01.064Z,7.1
2019-04-07T19:00:03.905Z,6.1
2019-04-07T19:01:06.492Z,5.2
2019-04-07T19:02:01.104Z,4.4
2019-04-07T19:03:06.117Z,3.7
2019-04-07T19:04:01.099Z,3.2
2019-04-07T19:05:01.954Z,2.7
2019-04-07T19:06:08.590Z,2.3
2019-04-07T19:07:01.416Z,2.0
2019-04-07T19:08:01.112Z,1.7
2019-04-07T19:09:01.536Z,1.4
2019-04-07T19:10:07.672Z,1.2
2019-04-07T19:11:08.859Z,1.0
2019-04-07T19:12:05.606Z,0.9
2019-04-07T19:13:05.561Z,0.7
2019-04-07T19:14:20.794Z,0.6
2019-04-07T19:15:06.118Z,0.5
2019-04-07T19:16:01.843Z,0.4
2019-04-07T19:17:01.253Z,0.3
2019-04-07T19:19:06.897Z,0.2
2019-04-07T19:20:05.259Z,0.1
